Nouméa, Nouvelle-Calédonie

11:08 NCT le 23 décembre 2014 (GMT +1100)
Port Moselle | Change Station
CLOSE
Current Station
Stations météorologiques personnelles
Location: Nouméa, PROVINCE SUD
Altitude: 33 ft
Stations météo à proximité

Alt. 33 ft 22.28 °S, 166.44 °E | Updated 3 minutes ago

Clear
Ciel dégagé
85.6 ° F
Paraît 93 ° F
N
11.0
Vent Variable Vent de SE
Gusts 21.0 mph

Aujourd'hui
Haut(e) -- | Bas -- ° F
--% Risque de précip.
Hier
Haut(e) -- | Bas -- ° F
Precip. -- pouce
5:08 AM 6:38 PM
Nouvelle lune, 1% visible
Pression 29.80 pouce
Visibilité 6.2 Miles terrestres
Nuages
indice de chaleur 93 ° F
Point de rosée 74 ° F
Humidité 68%
Précipitations 0.00 pouce
Profondeur de la couche neigeuse Non disponible.
UV Non disponible.
Pollen Non disponible.
Qualité de l'air Non disponible.
Flu Activity Non disponible.
METAR NWWW 230000Z AUTO 21008KT 170V250 9999 NSC 31/21 Q1009

More Conditions Fewer Conditions

Pression 29.80 pouce
Visibilité 6.2 Miles terrestres
Nuages
indice de chaleur 93 ° F
Point de rosée 74 ° F
Humidité 68%
Précipitations 0.00 pouce
Profondeur de la couche neigeuse Non disponible.
UV Non disponible.
Pollen Non disponible.
Qualité de l'air Non disponible.
Flu Activity Non disponible.
METAR NWWW 230000Z AUTO 21008KT 170V250 9999 NSC 31/21 Q1009

More Conditions Fewer Conditions

10-Day Weather Forecast

Almanac

Astronomie

Dec. 23, 2014 Lever Coucher
Temps réel
Crépuscule civil
Crépuscule nautique
Crépuscule astronomique
Lune
Durée de lumière visible
Longueur du jour
Tomorrow will be .
, % of the Moon is Illuminated

Extrêmes aujourd'hui

Country Highs Country Lows

Community

WunderPhotos

Upload Photos

1,779,732 Photos téléchargées !

WunderBlogs® & News

Nearby

Qualité de l'air

  Qualité de l'air Indice de la qualité de l'air Polluant
Not available.

Épaisseur de neige

Station Depth Altitude

Activité sismique

Ville Distance Mag. Time & Date
Minimum magnitude displayed is 2.5.

Températures des eaux côtières

Lieu Température

Stations météo à proximité